Soaring Guidance
Issued by NWS Reno, NV

Home | Current Version | Previous Version | Text Only | Print | Product List | Glossary On
Versions: 1 2 3 4 5 6 7 8 9 10 11 12 13 14 15 16
000
UXUS97 KREV 281352
SRGREV

SOARING FORECAST
NATIONAL WEATHER SERVICE - RENO NV
700 AM PDT TUE JUL 28 2015

THIS SOARING FORECAST IS FOR THE EASTERN SIERRA AND WESTERN NEVADA
WITH SPECIFIC INDICES FOR THE GREATER RENO AREA.

THIS FORECAST IS PREPARED DAILY BY 700 AM AND IS NOT UPDATED.

FOR CURRENT FLIGHT CONDITIONS...FORECASTS...AND ADVISORIES...ACCESS
YOUR LOCAL BRIEFING OUTLET OR FLIGHT SERVICE STATION.

*******************************************************************
FORECASTED LOCAL INDICES FOR RENO:        TODAY     YESTERDAY
FORECASTED MAX TEMP AT RENO (DEG F).....     88          89
FORECASTED TRIGGER TEMPERATURE (DEG F)..     68          65
   EXCEEDED YESTERDAY BY 1055 AM PDT
FORECASTED MAXIMUM ALTITUDE (FT MSL)....  14400       18000
FORECASTED SOARING INDEX (FPM)..........    702         993
FORECASTED K-INDEX.........VALID 18Z....      2          17
FORECASTED K-INDEX.........VALID 00Z....      6          12
FORECASTED LIFTED INDEX....VALID 18Z....     13           5
FORECASTED LIFTED INDEX....VALID 00Z....     10           7

AFTERNOON WINDS ALOFT FORECAST
MSL (FT) WIND/TEMP
9000  0707/+14
10000 1207/+11
12000 2806/+06
14000 2806/+01
16000 2807/-03
18000 2908/-07
24000 3012/-22
30000 2913/-37
34000 2814/-47
39000 2518/-56

SLIDE MOUNTAIN DATA:
     DATE       TIME     TEMP  DEWPT   RH         WIND (MPH)
                        (F)   (F)           | DIR  SPEED GUST
2015-07-28    05:50      43    22     43    | 072   19   25
2015-07-28    05:30      43    22     42    | 070   19   27
2015-07-28    05:20      43    22     43    | 073   16   22
2015-07-28    05:00      43    22     43    | 070   17   21

RENO TAF FORECAST:
KRNO 281120Z 2812/2912 VRB03KT P6SM SKC
     FM281900 11006KT P6SM SKC
     FM290300 VRB03KT P6SM SKC

CARSON CITY TAF FORECAST:
KCXP 281120Z 2812/2912 01005KT P6SM SKC
     FM281800 07009G16KT P6SM SKC
     FM290400 VRB03KT P6SM SKC

OUTLOOK FOR THE RENO-CARSON CITY-MINDEN AREA:
.WEDNESDAY...SUNNY. HIGHS 89 TO 99. LIGHT WINDS BECOMING EAST
AROUND 10 MPH IN THE AFTERNOON.

SUNRISE AND SUNSET
JULY 28 2015..........SUNRISE   555 AM PDT   SUNSET   816 PM PDT
JULY 29 2015..........SUNRISE   556 AM PDT   SUNSET   815 PM PDT


USA.gov is the U.S. government's official web portal to all federal, state and local government web resources and services.